sensor_id;sensor_type;location;lat;lon;timestamp;P1;durP1;ratioP1;P2;durP2;ratioP2
12719;SDS011;6424;48.520;11.228;2023-02-28T00:01:40;3.73;;;2.83;;
12719;SDS011;6424;48.520;11.228;2023-02-28T00:04:21;3.83;;;2.50;;
12719;SDS011;6424;48.520;11.228;2023-02-28T00:07:01;3.80;;;2.50;;
12719;SDS011;6424;48.520;11.228;2023-02-28T00:09:42;4.70;;;2.87;;
12719;SDS011;6424;48.520;11.228;2023-02-28T00:12:23;5.23;;;3.10;;
12719;SDS011;6424;48.520;11.228;2023-02-28T00:15:05;4.43;;;2.87;;
12719;SDS011;6424;48.520;11.228;2023-02-28T00:17:47;5.40;;;2.77;;
12719;SDS011;6424;48.520;11.228;2023-02-28T00:20:28;4.60;;;2.97;;
12719;SDS011;6424;48.520;11.228;2023-02-28T00:23:09;3.17;;;2.80;;
12719;SDS011;6424;48.520;11.228;2023-02-28T00:25:50;5.40;;;2.97;;
12719;SDS011;6424;48.520;11.228;2023-02-28T00:28:31;4.33;;;2.70;;
12719;SDS011;6424;48.520;11.228;2023-02-28T00:31:12;3.80;;;2.93;;
12719;SDS011;6424;48.520;11.228;2023-02-28T00:33:53;4.20;;;2.87;;
12719;SDS011;6424;48.520;11.228;2023-02-28T00:36:33;4.10;;;2.90;;
12719;SDS011;6424;48.520;11.228;2023-02-28T00:39:14;5.17;;;3.20;;
12719;SDS011;6424;48.520;11.228;2023-02-28T00:41:55;3.43;;;2.57;;
12719;SDS011;6424;48.520;11.228;2023-02-28T00:44:36;4.40;;;3.30;;
12719;SDS011;6424;48.520;11.228;2023-02-28T00:47:17;5.07;;;3.20;;
12719;SDS011;6424;48.520;11.228;2023-02-28T00:49:58;3.30;;;3.00;;
12719;SDS011;6424;48.520;11.228;2023-02-28T00:52:24;4.87;;;3.13;;
12719;SDS011;6424;48.520;11.228;2023-02-28T00:55:05;4.43;;;2.63;;
12719;SDS011;6424;48.520;11.228;2023-02-28T00:57:46;5.10;;;3.20;;
12719;SDS011;6424;48.520;11.228;2023-02-28T01:00:27;5.10;;;3.10;;
12719;SDS011;6424;48.520;11.228;2023-02-28T01:03:07;5.17;;;2.77;;
12719;SDS011;6424;48.520;11.228;2023-02-28T01:05:48;3.50;;;2.80;;
12719;SDS011;6424;48.520;11.228;2023-02-28T01:08:29;5.27;;;3.23;;
12719;SDS011;6424;48.520;11.228;2023-02-28T01:11:10;3.93;;;3.13;;
12719;SDS011;6424;48.520;11.228;2023-02-28T01:13:52;5.37;;;3.40;;
12719;SDS011;6424;48.520;11.228;2023-02-28T01:16:33;5.40;;;3.40;;
12719;SDS011;6424;48.520;11.228;2023-02-28T01:19:14;4.13;;;3.00;;
12719;SDS011;6424;48.520;11.228;2023-02-28T01:21:55;4.00;;;3.20;;
12719;SDS011;6424;48.520;11.228;2023-02-28T01:24:37;3.20;;;2.90;;
12719;SDS011;6424;48.520;11.228;2023-02-28T01:27:18;5.60;;;3.30;;
12719;SDS011;6424;48.520;11.228;2023-02-28T01:29:58;4.73;;;3.13;;
12719;SDS011;6424;48.520;11.228;2023-02-28T01:32:39;3.90;;;3.17;;
12719;SDS011;6424;48.520;11.228;2023-02-28T01:35:05;4.20;;;3.37;;
12719;SDS011;6424;48.520;11.228;2023-02-28T01:37:46;4.70;;;3.50;;
12719;SDS011;6424;48.520;11.228;2023-02-28T01:40:27;4.93;;;3.20;;
12719;SDS011;6424;48.520;11.228;2023-02-28T01:43:12;4.47;;;3.50;;
12719;SDS011;6424;48.520;11.228;2023-02-28T01:46:01;4.87;;;3.63;;
12719;SDS011;6424;48.520;11.228;2023-02-28T01:48:48;5.33;;;3.23;;
12719;SDS011;6424;48.520;11.228;2023-02-28T01:54:34;6.27;;;3.47;;
12719;SDS011;6424;48.520;11.228;2023-02-28T01:57:16;5.27;;;3.23;;
12719;SDS011;6424;48.520;11.228;2023-02-28T02:00:00;3.73;;;3.07;;
12719;SDS011;6424;48.520;11.228;2023-02-28T02:02:50;5.57;;;3.53;;
12719;SDS011;6424;48.520;11.228;2023-02-28T02:05:33;4.73;;;3.20;;
12719;SDS011;6424;48.520;11.228;2023-02-28T02:08:19;4.43;;;3.17;;
12719;SDS011;6424;48.520;11.228;2023-02-28T02:11:02;6.23;;;3.53;;
12719;SDS011;6424;48.520;11.228;2023-02-28T02:28:06;3.83;;;3.07;;
12719;SDS011;6424;48.520;11.228;2023-02-28T02:45:27;4.33;;;3.83;;
12719;SDS011;6424;48.520;11.228;2023-02-28T02:48:18;3.60;;;3.20;;
12719;SDS011;6424;48.520;11.228;2023-02-28T02:51:04;5.63;;;3.47;;
12719;SDS011;6424;48.520;11.228;2023-02-28T02:53:54;4.43;;;3.53;;
12719;SDS011;6424;48.520;11.228;2023-02-28T02:56:48;5.80;;;3.63;;
12719;SDS011;6424;48.520;11.228;2023-02-28T02:59:31;5.03;;;3.57;;
12719;SDS011;6424;48.520;11.228;2023-02-28T03:02:13;4.63;;;3.27;;
12719;SDS011;6424;48.520;11.228;2023-02-28T03:04:57;4.53;;;3.43;;
12719;SDS011;6424;48.520;11.228;2023-02-28T03:07:40;4.80;;;3.60;;
12719;SDS011;6424;48.520;11.228;2023-02-28T03:10:28;6.77;;;4.10;;
12719;SDS011;6424;48.520;11.228;2023-02-28T03:24:46;4.47;;;3.50;;
12719;SDS011;6424;48.520;11.228;2023-02-28T03:33:35;5.37;;;3.70;;
12719;SDS011;6424;48.520;11.228;2023-02-28T03:36:27;4.43;;;4.03;;
12719;SDS011;6424;48.520;11.228;2023-02-28T03:38:59;4.90;;;3.80;;
12719;SDS011;6424;48.520;11.228;2023-02-28T03:42:05;3.63;;;3.33;;
12719;SDS011;6424;48.520;11.228;2023-02-28T03:44:43;4.10;;;3.70;;
12719;SDS011;6424;48.520;11.228;2023-02-28T03:47:37;6.77;;;3.67;;
12719;SDS011;6424;48.520;11.228;2023-02-28T03:50:35;5.17;;;3.77;;
12719;SDS011;6424;48.520;11.228;2023-02-28T03:53:29;3.80;;;3.47;;
12719;SDS011;6424;48.520;11.228;2023-02-28T03:56:19;4.63;;;3.43;;
12719;SDS011;6424;48.520;11.228;2023-02-28T03:59:07;5.90;;;4.20;;
12719;SDS011;6424;48.520;11.228;2023-02-28T04:01:54;5.17;;;4.10;;
12719;SDS011;6424;48.520;11.228;2023-02-28T04:04:35;4.57;;;3.60;;
12719;SDS011;6424;48.520;11.228;2023-02-28T04:07:16;6.80;;;4.10;;
12719;SDS011;6424;48.520;11.228;2023-02-28T04:09:57;5.40;;;3.93;;
12719;SDS011;6424;48.520;11.228;2023-02-28T04:12:39;4.60;;;4.00;;
12719;SDS011;6424;48.520;11.228;2023-02-28T04:15:05;5.90;;;3.87;;
12719;SDS011;6424;48.520;11.228;2023-02-28T04:17:31;4.73;;;4.13;;
12719;SDS011;6424;48.520;11.228;2023-02-28T04:20:12;6.30;;;4.43;;
12719;SDS011;6424;48.520;11.228;2023-02-28T04:22:38;4.53;;;3.87;;
12719;SDS011;6424;48.520;11.228;2023-02-28T04:25:18;6.50;;;4.03;;
12719;SDS011;6424;48.520;11.228;2023-02-28T04:27:59;5.33;;;4.07;;
12719;SDS011;6424;48.520;11.228;2023-02-28T04:30:40;6.23;;;4.00;;
12719;SDS011;6424;48.520;11.228;2023-02-28T04:33:21;4.83;;;4.20;;
12719;SDS011;6424;48.520;11.228;2023-02-28T04:36:03;5.20;;;4.10;;
12719;SDS011;6424;48.520;11.228;2023-02-28T04:38:46;9.27;;;4.17;;
12719;SDS011;6424;48.520;11.228;2023-02-28T04:41:26;5.67;;;4.17;;
12719;SDS011;6424;48.520;11.228;2023-02-28T04:44:07;5.63;;;4.60;;
12719;SDS011;6424;48.520;11.228;2023-02-28T04:46:48;6.53;;;4.43;;
12719;SDS011;6424;48.520;11.228;2023-02-28T04:49:30;5.50;;;4.20;;
12719;SDS011;6424;48.520;11.228;2023-02-28T04:52:11;5.07;;;4.53;;
12719;SDS011;6424;48.520;11.228;2023-02-28T04:54:53;7.30;;;4.70;;
12719;SDS011;6424;48.520;11.228;2023-02-28T04:57:34;5.40;;;4.27;;
12719;SDS011;6424;48.520;11.228;2023-02-28T05:00:14;4.97;;;4.47;;
12719;SDS011;6424;48.520;11.228;2023-02-28T05:02:56;8.97;;;5.70;;
12719;SDS011;6424;48.520;11.228;2023-02-28T05:05:37;8.00;;;5.87;;
12719;SDS011;6424;48.520;11.228;2023-02-28T05:08:18;10.93;;;6.87;;
12719;SDS011;6424;48.520;11.228;2023-02-28T05:10:59;10.83;;;6.97;;
12719;SDS011;6424;48.520;11.228;2023-02-28T05:13:44;10.70;;;8.07;;
12719;SDS011;6424;48.520;11.228;2023-02-28T05:16:25;12.40;;;7.80;;
12719;SDS011;6424;48.520;11.228;2023-02-28T05:19:05;6.60;;;5.50;;
12719;SDS011;6424;48.520;11.228;2023-02-28T05:21:50;8.23;;;5.73;;
12719;SDS011;6424;48.520;11.228;2023-02-28T05:24:35;6.23;;;5.60;;
12719;SDS011;6424;48.520;11.228;2023-02-28T05:27:16;9.57;;;6.67;;
12719;SDS011;6424;48.520;11.228;2023-02-28T05:29:57;8.27;;;5.37;;
12719;SDS011;6424;48.520;11.228;2023-02-28T05:32:39;7.30;;;5.43;;
12719;SDS011;6424;48.520;11.228;2023-02-28T05:35:09;6.57;;;5.10;;
12719;SDS011;6424;48.520;11.228;2023-02-28T05:37:51;5.53;;;4.93;;
12719;SDS011;6424;48.520;11.228;2023-02-28T05:40:32;6.17;;;4.97;;
12719;SDS011;6424;48.520;11.228;2023-02-28T05:43:13;7.17;;;5.20;;
12719;SDS011;6424;48.520;11.228;2023-02-28T05:45:54;7.20;;;5.50;;
12719;SDS011;6424;48.520;11.228;2023-02-28T05:48:35;6.37;;;5.50;;
12719;SDS011;6424;48.520;11.228;2023-02-28T05:51:17;5.67;;;5.03;;
12719;SDS011;6424;48.520;11.228;2023-02-28T05:53:58;7.20;;;5.80;;
12719;SDS011;6424;48.520;11.228;2023-02-28T05:56:41;6.77;;;5.70;;
12719;SDS011;6424;48.520;11.228;2023-02-28T05:59:24;10.60;;;6.10;;
12719;SDS011;6424;48.520;11.228;2023-02-28T06:02:05;8.10;;;6.30;;
12719;SDS011;6424;48.520;11.228;2023-02-28T06:04:48;9.90;;;6.33;;
12719;SDS011;6424;48.520;11.228;2023-02-28T06:07:29;6.13;;;5.40;;
12719;SDS011;6424;48.520;11.228;2023-02-28T06:10:10;8.30;;;6.10;;
12719;SDS011;6424;48.520;11.228;2023-02-28T06:12:51;7.50;;;5.47;;
12719;SDS011;6424;48.520;11.228;2023-02-28T06:15:17;7.90;;;6.20;;
12719;SDS011;6424;48.520;11.228;2023-02-28T06:17:58;8.33;;;6.00;;
12719;SDS011;6424;48.520;11.228;2023-02-28T06:20:39;7.53;;;6.20;;
12719;SDS011;6424;48.520;11.228;2023-02-28T06:23:21;8.67;;;6.70;;
12719;SDS011;6424;48.520;11.228;2023-02-28T06:26:02;7.53;;;6.20;;
12719;SDS011;6424;48.520;11.228;2023-02-28T06:28:42;9.23;;;5.97;;
12719;SDS011;6424;48.520;11.228;2023-02-28T06:31:23;7.93;;;5.93;;
12719;SDS011;6424;48.520;11.228;2023-02-28T06:34:05;7.57;;;6.40;;
12719;SDS011;6424;48.520;11.228;2023-02-28T06:36:46;8.80;;;6.33;;
12719;SDS011;6424;48.520;11.228;2023-02-28T06:39:30;10.23;;;6.40;;
12719;SDS011;6424;48.520;11.228;2023-02-28T06:42:11;8.70;;;6.50;;
12719;SDS011;6424;48.520;11.228;2023-02-28T06:44:52;9.50;;;6.13;;
12719;SDS011;6424;48.520;11.228;2023-02-28T06:47:33;8.40;;;6.33;;
12719;SDS011;6424;48.520;11.228;2023-02-28T06:49:59;9.30;;;6.90;;
12719;SDS011;6424;48.520;11.228;2023-02-28T06:52:41;9.67;;;6.47;;
12719;SDS011;6424;48.520;11.228;2023-02-28T06:55:22;9.40;;;6.17;;
12719;SDS011;6424;48.520;11.228;2023-02-28T06:58:02;8.10;;;6.20;;
12719;SDS011;6424;48.520;11.228;2023-02-28T07:00:44;9.53;;;6.50;;
12719;SDS011;6424;48.520;11.228;2023-02-28T07:03:25;7.50;;;6.47;;
12719;SDS011;6424;48.520;11.228;2023-02-28T07:06:06;9.27;;;5.93;;
12719;SDS011;6424;48.520;11.228;2023-02-28T07:08:32;9.03;;;6.67;;
12719;SDS011;6424;48.520;11.228;2023-02-28T07:11:14;8.80;;;6.80;;
12719;SDS011;6424;48.520;11.228;2023-02-28T07:13:56;7.97;;;6.47;;
12719;SDS011;6424;48.520;11.228;2023-02-28T07:16:37;8.53;;;6.87;;
12719;SDS011;6424;48.520;11.228;2023-02-28T07:19:18;8.53;;;6.83;;
12719;SDS011;6424;48.520;11.228;2023-02-28T07:21:58;10.17;;;7.30;;
12719;SDS011;6424;48.520;11.228;2023-02-28T07:24:39;8.33;;;6.13;;
12719;SDS011;6424;48.520;11.228;2023-02-28T07:27:20;7.47;;;6.10;;
12719;SDS011;6424;48.520;11.228;2023-02-28T07:30:05;8.20;;;6.27;;
12719;SDS011;6424;48.520;11.228;2023-02-28T07:32:47;8.23;;;6.10;;
12719;SDS011;6424;48.520;11.228;2023-02-28T07:35:28;9.50;;;6.80;;
12719;SDS011;6424;48.520;11.228;2023-02-28T07:38:08;8.67;;;6.43;;
12719;SDS011;6424;48.520;11.228;2023-02-28T07:40:49;10.57;;;6.90;;
12719;SDS011;6424;48.520;11.228;2023-02-28T07:43:15;13.57;;;7.20;;
12719;SDS011;6424;48.520;11.228;2023-02-28T07:46:00;8.77;;;6.60;;
12719;SDS011;6424;48.520;11.228;2023-02-28T07:48:48;10.40;;;7.03;;
12719;SDS011;6424;48.520;11.228;2023-02-28T07:51:29;9.30;;;6.70;;
12719;SDS011;6424;48.520;11.228;2023-02-28T07:54:10;8.27;;;6.70;;
12719;SDS011;6424;48.520;11.228;2023-02-28T07:56:36;9.40;;;6.00;;
12719;SDS011;6424;48.520;11.228;2023-02-28T07:59:17;9.80;;;6.43;;
12719;SDS011;6424;48.520;11.228;2023-02-28T08:01:58;9.57;;;7.03;;
12719;SDS011;6424;48.520;11.228;2023-02-28T08:04:39;9.23;;;6.67;;
12719;SDS011;6424;48.520;11.228;2023-02-28T08:07:20;8.10;;;6.83;;
12719;SDS011;6424;48.520;11.228;2023-02-28T08:10:00;8.53;;;7.30;;
12719;SDS011;6424;48.520;11.228;2023-02-28T08:12:41;9.27;;;6.93;;
12719;SDS011;6424;48.520;11.228;2023-02-28T08:15:22;9.13;;;6.80;;
12719;SDS011;6424;48.520;11.228;2023-02-28T08:18:03;8.23;;;6.20;;
12719;SDS011;6424;48.520;11.228;2023-02-28T08:20:29;8.07;;;6.23;;
12719;SDS011;6424;48.520;11.228;2023-02-28T08:22:55;9.20;;;6.53;;
12719;SDS011;6424;48.520;11.228;2023-02-28T08:25:36;8.77;;;6.77;;
12719;SDS011;6424;48.520;11.228;2023-02-28T08:28:17;10.50;;;6.80;;
12719;SDS011;6424;48.520;11.228;2023-02-28T08:30:57;11.30;;;7.97;;
12719;SDS011;6424;48.520;11.228;2023-02-28T08:33:39;8.17;;;6.70;;
12719;SDS011;6424;48.520;11.228;2023-02-28T08:36:21;8.33;;;7.13;;
12719;SDS011;6424;48.520;11.228;2023-02-28T08:39:02;9.77;;;6.60;;
12719;SDS011;6424;48.520;11.228;2023-02-28T08:41:28;9.07;;;6.67;;
12719;SDS011;6424;48.520;11.228;2023-02-28T08:44:09;10.50;;;7.50;;
12719;SDS011;6424;48.520;11.228;2023-02-28T08:46:50;8.77;;;6.73;;
12719;SDS011;6424;48.520;11.228;2023-02-28T08:49:30;9.13;;;6.83;;
12719;SDS011;6424;48.520;11.228;2023-02-28T08:52:11;9.67;;;7.13;;
12719;SDS011;6424;48.520;11.228;2023-02-28T08:54:52;8.67;;;7.10;;
12719;SDS011;6424;48.520;11.228;2023-02-28T08:57:33;8.73;;;6.67;;
12719;SDS011;6424;48.520;11.228;2023-02-28T09:00:13;9.63;;;7.10;;
12719;SDS011;6424;48.520;11.228;2023-02-28T09:02:54;10.00;;;7.40;;
12719;SDS011;6424;48.520;11.228;2023-02-28T09:05:35;9.20;;;7.17;;
12719;SDS011;6424;48.520;11.228;2023-02-28T09:08:01;9.47;;;6.67;;
12719;SDS011;6424;48.520;11.228;2023-02-28T09:10:42;10.10;;;6.80;;
12719;SDS011;6424;48.520;11.228;2023-02-28T09:13:26;9.10;;;7.23;;
12719;SDS011;6424;48.520;11.228;2023-02-28T09:16:09;8.80;;;6.83;;
12719;SDS011;6424;48.520;11.228;2023-02-28T09:18:51;10.00;;;7.33;;
12719;SDS011;6424;48.520;11.228;2023-02-28T09:21:32;8.50;;;6.27;;
12719;SDS011;6424;48.520;11.228;2023-02-28T09:24:13;9.13;;;7.23;;
12719;SDS011;6424;48.520;11.228;2023-02-28T09:26:40;12.50;;;7.40;;
12719;SDS011;6424;48.520;11.228;2023-02-28T09:29:21;9.70;;;7.47;;
12719;SDS011;6424;48.520;11.228;2023-02-28T09:32:02;9.90;;;7.40;;
12719;SDS011;6424;48.520;11.228;2023-02-28T09:34:28;9.87;;;6.83;;
12719;SDS011;6424;48.520;11.228;2023-02-28T09:37:10;9.13;;;6.60;;
12719;SDS011;6424;48.520;11.228;2023-02-28T09:39:51;9.93;;;7.20;;
12719;SDS011;6424;48.520;11.228;2023-02-28T09:42:32;9.27;;;6.97;;
12719;SDS011;6424;48.520;11.228;2023-02-28T09:45:21;10.73;;;6.63;;
12719;SDS011;6424;48.520;11.228;2023-02-28T09:48:10;9.07;;;7.00;;
12719;SDS011;6424;48.520;11.228;2023-02-28T09:50:59;8.70;;;6.53;;
12719;SDS011;6424;48.520;11.228;2023-02-28T09:53:43;11.03;;;7.03;;
12719;SDS011;6424;48.520;11.228;2023-02-28T09:56:25;10.03;;;7.27;;
12719;SDS011;6424;48.520;11.228;2023-02-28T09:59:57;9.37;;;7.33;;
12719;SDS011;6424;48.520;11.228;2023-02-28T10:05:20;9.70;;;7.77;;
12719;SDS011;6424;48.520;11.228;2023-02-28T10:08:22;8.97;;;6.77;;
12719;SDS011;6424;48.520;11.228;2023-02-28T10:11:07;8.77;;;7.13;;
12719;SDS011;6424;48.520;11.228;2023-02-28T10:14:02;9.13;;;6.97;;
12719;SDS011;6424;48.520;11.228;2023-02-28T10:17:16;9.67;;;7.37;;
12719;SDS011;6424;48.520;11.228;2023-02-28T10:20:03;8.73;;;7.40;;
12719;SDS011;6424;48.520;11.228;2023-02-28T10:22:52;8.90;;;7.07;;
12719;SDS011;6424;48.520;11.228;2023-02-28T10:25:38;10.20;;;6.90;;
12719;SDS011;6424;48.520;11.228;2023-02-28T10:28:19;7.93;;;7.13;;
12719;SDS011;6424;48.520;11.228;2023-02-28T10:31:00;10.60;;;7.43;;
12719;SDS011;6424;48.520;11.228;2023-02-28T10:33:42;8.63;;;7.67;;
12719;SDS011;6424;48.520;11.228;2023-02-28T10:36:23;9.03;;;6.33;;
12719;SDS011;6424;48.520;11.228;2023-02-28T10:39:33;10.43;;;7.47;;
12719;SDS011;6424;48.520;11.228;2023-02-28T10:42:25;10.20;;;7.30;;
12719;SDS011;6424;48.520;11.228;2023-02-28T10:47:54;9.67;;;7.67;;
12719;SDS011;6424;48.520;11.228;2023-02-28T10:53:35;9.70;;;6.77;;
12719;SDS011;6424;48.520;11.228;2023-02-28T10:56:28;10.83;;;7.37;;
12719;SDS011;6424;48.520;11.228;2023-02-28T11:01:54;9.57;;;7.53;;
12719;SDS011;6424;48.520;11.228;2023-02-28T11:04:36;10.27;;;7.43;;
12719;SDS011;6424;48.520;11.228;2023-02-28T11:07:20;8.43;;;7.17;;
12719;SDS011;6424;48.520;11.228;2023-02-28T11:10:02;8.17;;;7.27;;
12719;SDS011;6424;48.520;11.228;2023-02-28T11:12:44;8.03;;;7.07;;
12719;SDS011;6424;48.520;11.228;2023-02-28T11:15:30;9.17;;;7.53;;
12719;SDS011;6424;48.520;11.228;2023-02-28T11:21:03;9.47;;;6.67;;
12719;SDS011;6424;48.520;11.228;2023-02-28T11:23:44;9.80;;;6.80;;
12719;SDS011;6424;48.520;11.228;2023-02-28T11:26:39;9.87;;;7.20;;
12719;SDS011;6424;48.520;11.228;2023-02-28T11:29:26;8.57;;;6.73;;
12719;SDS011;6424;48.520;11.228;2023-02-28T11:34:59;7.97;;;6.20;;
12719;SDS011;6424;48.520;11.228;2023-02-28T11:37:42;8.80;;;7.53;;
12719;SDS011;6424;48.520;11.228;2023-02-28T11:52:20;8.13;;;6.87;;
12719;SDS011;6424;48.520;11.228;2023-02-28T11:55:16;9.63;;;7.20;;
12719;SDS011;6424;48.520;11.228;2023-02-28T12:01:29;8.60;;;6.90;;
12719;SDS011;6424;48.520;11.228;2023-02-28T12:04:20;7.73;;;6.77;;
12719;SDS011;6424;48.520;11.228;2023-02-28T12:07:16;10.97;;;6.97;;
12719;SDS011;6424;48.520;11.228;2023-02-28T12:10:20;7.93;;;7.10;;
12719;SDS011;6424;48.520;11.228;2023-02-28T12:13:09;8.23;;;7.00;;
12719;SDS011;6424;48.520;11.228;2023-02-28T12:19:11;8.27;;;7.10;;
12719;SDS011;6424;48.520;11.228;2023-02-28T12:28:10;10.00;;;7.27;;
12719;SDS011;6424;48.520;11.228;2023-02-28T12:30:57;10.10;;;7.70;;
12719;SDS011;6424;48.520;11.228;2023-02-28T12:33:46;8.73;;;7.23;;
12719;SDS011;6424;48.520;11.228;2023-02-28T12:36:31;7.70;;;6.77;;
12719;SDS011;6424;48.520;11.228;2023-02-28T12:39:20;7.87;;;6.73;;
12719;SDS011;6424;48.520;11.228;2023-02-28T12:42:09;8.40;;;7.20;;
12719;SDS011;6424;48.520;11.228;2023-02-28T12:44:56;9.10;;;7.30;;
12719;SDS011;6424;48.520;11.228;2023-02-28T12:47:42;8.33;;;6.90;;
12719;SDS011;6424;48.520;11.228;2023-02-28T12:50:10;9.50;;;7.00;;
12719;SDS011;6424;48.520;11.228;2023-02-28T12:52:56;8.43;;;6.93;;
12719;SDS011;6424;48.520;11.228;2023-02-28T12:58:51;8.53;;;7.27;;
12719;SDS011;6424;48.520;11.228;2023-02-28T13:04:57;8.50;;;7.00;;
12719;SDS011;6424;48.520;11.228;2023-02-28T13:11:10;8.60;;;6.73;;
12719;SDS011;6424;48.520;11.228;2023-02-28T13:28:03;9.13;;;6.97;;
12719;SDS011;6424;48.520;11.228;2023-02-28T13:33:34;7.90;;;6.70;;
12719;SDS011;6424;48.520;11.228;2023-02-28T13:39:03;15.20;;;9.60;;
12719;SDS011;6424;48.520;11.228;2023-02-28T13:48:02;8.53;;;6.70;;
12719;SDS011;6424;48.520;11.228;2023-02-28T13:50:44;8.43;;;6.97;;
12719;SDS011;6424;48.520;11.228;2023-02-28T13:53:39;9.00;;;6.80;;
12719;SDS011;6424;48.520;11.228;2023-02-28T13:57:00;8.83;;;7.20;;
12719;SDS011;6424;48.520;11.228;2023-02-28T13:59:50;7.50;;;6.50;;
12719;SDS011;6424;48.520;11.228;2023-02-28T14:05:36;10.17;;;7.67;;
12719;SDS011;6424;48.520;11.228;2023-02-28T14:08:19;8.93;;;7.27;;
12719;SDS011;6424;48.520;11.228;2023-02-28T14:11:04;8.10;;;6.80;;
12719;SDS011;6424;48.520;11.228;2023-02-28T14:13:49;10.03;;;7.37;;
12719;SDS011;6424;48.520;11.228;2023-02-28T14:16:37;9.20;;;7.10;;
12719;SDS011;6424;48.520;11.228;2023-02-28T14:19:25;9.67;;;7.03;;
12719;SDS011;6424;48.520;11.228;2023-02-28T14:37:33;8.43;;;6.80;;
12719;SDS011;6424;48.520;11.228;2023-02-28T14:40:19;8.27;;;6.87;;
12719;SDS011;6424;48.520;11.228;2023-02-28T14:43:16;8.03;;;6.87;;
12719;SDS011;6424;48.520;11.228;2023-02-28T14:46:01;11.50;;;7.90;;
12719;SDS011;6424;48.520;11.228;2023-02-28T14:48:46;13.27;;;8.07;;
12719;SDS011;6424;48.520;11.228;2023-02-28T14:51:29;10.67;;;7.17;;
12719;SDS011;6424;48.520;11.228;2023-02-28T14:54:13;14.00;;;7.87;;
12719;SDS011;6424;48.520;11.228;2023-02-28T14:56:41;13.17;;;8.37;;
12719;SDS011;6424;48.520;11.228;2023-02-28T15:08:11;11.80;;;8.60;;
12719;SDS011;6424;48.520;11.228;2023-02-28T15:13:39;14.53;;;8.33;;
12719;SDS011;6424;48.520;11.228;2023-02-28T15:16:25;9.83;;;7.20;;
12719;SDS011;6424;48.520;11.228;2023-02-28T15:19:23;18.60;;;8.53;;
12719;SDS011;6424;48.520;11.228;2023-02-28T15:22:12;10.53;;;7.77;;
12719;SDS011;6424;48.520;11.228;2023-02-28T15:24:58;8.77;;;7.77;;
12719;SDS011;6424;48.520;11.228;2023-02-28T15:27:25;7.93;;;7.13;;
12719;SDS011;6424;48.520;11.228;2023-02-28T15:30:33;9.87;;;6.90;;
12719;SDS011;6424;48.520;11.228;2023-02-28T15:36:11;13.23;;;8.53;;
12719;SDS011;6424;48.520;11.228;2023-02-28T15:38:55;9.10;;;7.80;;
12719;SDS011;6424;48.520;11.228;2023-02-28T15:41:37;10.57;;;8.67;;
12719;SDS011;6424;48.520;11.228;2023-02-28T15:44:28;10.17;;;7.97;;
12719;SDS011;6424;48.520;11.228;2023-02-28T15:50:00;13.17;;;10.00;;
12719;SDS011;6424;48.520;11.228;2023-02-28T15:52:47;11.53;;;8.87;;
12719;SDS011;6424;48.520;11.228;2023-02-28T15:55:28;9.47;;;7.43;;
12719;SDS011;6424;48.520;11.228;2023-02-28T15:58:11;13.63;;;9.00;;
12719;SDS011;6424;48.520;11.228;2023-02-28T16:01:00;11.63;;;8.23;;
12719;SDS011;6424;48.520;11.228;2023-02-28T16:03:47;8.20;;;6.93;;
12719;SDS011;6424;48.520;11.228;2023-02-28T16:09:20;11.43;;;8.60;;
12719;SDS011;6424;48.520;11.228;2023-02-28T16:12:01;12.47;;;8.20;;
12719;SDS011;6424;48.520;11.228;2023-02-28T16:14:28;8.83;;;7.93;;
12719;SDS011;6424;48.520;11.228;2023-02-28T16:17:16;11.20;;;8.27;;
12719;SDS011;6424;48.520;11.228;2023-02-28T16:20:05;9.13;;;7.70;;
12719;SDS011;6424;48.520;11.228;2023-02-28T16:22:56;9.20;;;7.80;;
12719;SDS011;6424;48.520;11.228;2023-02-28T16:25:42;9.83;;;8.07;;
12719;SDS011;6424;48.520;11.228;2023-02-28T16:28:30;8.43;;;7.53;;
12719;SDS011;6424;48.520;11.228;2023-02-28T16:31:14;9.03;;;8.03;;
12719;SDS011;6424;48.520;11.228;2023-02-28T16:33:42;10.70;;;8.30;;
12719;SDS011;6424;48.520;11.228;2023-02-28T16:36:11;11.77;;;8.10;;
12719;SDS011;6424;48.520;11.228;2023-02-28T16:39:00;10.53;;;7.70;;
12719;SDS011;6424;48.520;11.228;2023-02-28T16:41:27;11.03;;;8.57;;
12719;SDS011;6424;48.520;11.228;2023-02-28T16:44:10;12.93;;;8.93;;
12719;SDS011;6424;48.520;11.228;2023-02-28T16:47:27;11.77;;;8.53;;
12719;SDS011;6424;48.520;11.228;2023-02-28T16:50:12;10.13;;;8.63;;
12719;SDS011;6424;48.520;11.228;2023-02-28T16:52:57;9.60;;;8.10;;
12719;SDS011;6424;48.520;11.228;2023-02-28T16:55:24;9.27;;;7.67;;
12719;SDS011;6424;48.520;11.228;2023-02-28T16:57:52;12.67;;;8.43;;
12719;SDS011;6424;48.520;11.228;2023-02-28T17:00:37;9.53;;;7.93;;
12719;SDS011;6424;48.520;11.228;2023-02-28T17:03:03;11.50;;;8.20;;
12719;SDS011;6424;48.520;11.228;2023-02-28T17:05:33;12.50;;;7.93;;
12719;SDS011;6424;48.520;11.228;2023-02-28T17:08:18;10.23;;;8.27;;
12719;SDS011;6424;48.520;11.228;2023-02-28T17:10:43;10.43;;;8.33;;
12719;SDS011;6424;48.520;11.228;2023-02-28T17:13:24;11.23;;;8.83;;
12719;SDS011;6424;48.520;11.228;2023-02-28T17:16:05;11.43;;;8.80;;
12719;SDS011;6424;48.520;11.228;2023-02-28T17:18:49;12.83;;;8.87;;
12719;SDS011;6424;48.520;11.228;2023-02-28T17:21:31;13.30;;;8.87;;
12719;SDS011;6424;48.520;11.228;2023-02-28T17:24:13;11.70;;;8.77;;
12719;SDS011;6424;48.520;11.228;2023-02-28T17:26:53;12.60;;;10.17;;
12719;SDS011;6424;48.520;11.228;2023-02-28T17:29:34;13.03;;;9.20;;
12719;SDS011;6424;48.520;11.228;2023-02-28T17:32:15;11.93;;;9.37;;
12719;SDS011;6424;48.520;11.228;2023-02-28T17:34:56;13.73;;;10.67;;
12719;SDS011;6424;48.520;11.228;2023-02-28T17:37:37;14.73;;;10.73;;
12719;SDS011;6424;48.520;11.228;2023-02-28T17:40:19;17.13;;;15.30;;
12719;SDS011;6424;48.520;11.228;2023-02-28T17:43:02;12.90;;;9.37;;
12719;SDS011;6424;48.520;11.228;2023-02-28T17:45:43;12.33;;;9.70;;
12719;SDS011;6424;48.520;11.228;2023-02-28T17:48:24;13.53;;;9.83;;
12719;SDS011;6424;48.520;11.228;2023-02-28T17:51:05;14.30;;;9.03;;
12719;SDS011;6424;48.520;11.228;2023-02-28T17:53:46;14.93;;;9.70;;
12719;SDS011;6424;48.520;11.228;2023-02-28T17:56:27;12.13;;;9.17;;
12719;SDS011;6424;48.520;11.228;2023-02-28T17:58:53;14.63;;;10.40;;
12719;SDS011;6424;48.520;11.228;2023-02-28T18:01:35;12.43;;;9.60;;
12719;SDS011;6424;48.520;11.228;2023-02-28T18:04:16;10.90;;;9.10;;
12719;SDS011;6424;48.520;11.228;2023-02-28T18:06:45;13.97;;;10.10;;
12719;SDS011;6424;48.520;11.228;2023-02-28T18:09:29;13.07;;;9.80;;
12719;SDS011;6424;48.520;11.228;2023-02-28T18:12:10;15.10;;;10.23;;
12719;SDS011;6424;48.520;11.228;2023-02-28T18:14:51;11.93;;;9.60;;
12719;SDS011;6424;48.520;11.228;2023-02-28T18:17:32;12.33;;;10.23;;
12719;SDS011;6424;48.520;11.228;2023-02-28T18:20:13;13.27;;;10.17;;
12719;SDS011;6424;48.520;11.228;2023-02-28T18:22:53;14.33;;;10.30;;
12719;SDS011;6424;48.520;11.228;2023-02-28T18:25:34;16.00;;;10.87;;
12719;SDS011;6424;48.520;11.228;2023-02-28T18:28:15;13.83;;;10.57;;
12719;SDS011;6424;48.520;11.228;2023-02-28T18:30:56;15.50;;;10.73;;
12719;SDS011;6424;48.520;11.228;2023-02-28T18:33:37;13.93;;;10.90;;
12719;SDS011;6424;48.520;11.228;2023-02-28T18:36:19;13.73;;;10.13;;
12719;SDS011;6424;48.520;11.228;2023-02-28T18:39:01;13.83;;;9.13;;
12719;SDS011;6424;48.520;11.228;2023-02-28T18:41:42;14.40;;;9.97;;
12719;SDS011;6424;48.520;11.228;2023-02-28T18:44:07;14.03;;;9.57;;
12719;SDS011;6424;48.520;11.228;2023-02-28T18:46:49;13.20;;;9.90;;
12719;SDS011;6424;48.520;11.228;2023-02-28T18:49:30;13.53;;;10.13;;
12719;SDS011;6424;48.520;11.228;2023-02-28T18:52:13;14.63;;;10.90;;
12719;SDS011;6424;48.520;11.228;2023-02-28T18:54:53;12.47;;;10.50;;
12719;SDS011;6424;48.520;11.228;2023-02-28T18:57:34;13.80;;;9.97;;
12719;SDS011;6424;48.520;11.228;2023-02-28T19:00:15;14.20;;;10.47;;